createdAt,value
2019-05-19T00:00:59.807Z,43.17
2019-05-19T00:03:29.613Z,43.16
2019-05-19T00:05:59.432Z,43.20
2019-05-19T00:08:29.655Z,43.20
2019-05-19T00:10:59.616Z,43.15
2019-05-19T00:13:29.469Z,43.16
2019-05-19T00:15:59.454Z,43.14
2019-05-19T00:18:29.294Z,43.11
2019-05-19T00:20:58.842Z,43.13
2019-05-19T00:23:28.396Z,43.10
2019-05-19T00:25:58.021Z,43.16
2019-05-19T00:28:27.713Z,43.23
2019-05-19T00:30:57.297Z,43.35
2019-05-19T00:33:27.188Z,43.30
2019-05-19T00:35:56.735Z,43.33
2019-05-19T00:38:26.316Z,43.30
2019-05-19T00:40:55.949Z,43.24
2019-05-19T00:43:25.517Z,43.23
2019-05-19T00:45:55.129Z,43.20
2019-05-19T00:48:24.715Z,43.20
2019-05-19T00:50:54.436Z,43.19
2019-05-19T00:53:23.990Z,43.16
2019-05-19T00:55:53.537Z,43.20
2019-05-19T00:58:23.119Z,43.20
2019-05-19T01:00:52.722Z,43.15
2019-05-19T01:03:22.825Z,43.16
2019-05-19T01:05:52.388Z,43.13
2019-05-19T01:08:21.931Z,43.16
2019-05-19T01:10:51.867Z,43.11
2019-05-19T01:13:21.433Z,43.16
2019-05-19T01:15:51.007Z,43.18
2019-05-19T01:18:20.549Z,43.13
2019-05-19T01:20:50.183Z,43.13
2019-05-19T01:23:20.079Z,43.13
2019-05-19T01:25:49.785Z,43.09
2019-05-19T01:28:19.391Z,43.11
2019-05-19T01:30:49.267Z,43.13
2019-05-19T01:33:18.886Z,43.12
2019-05-19T01:35:48.446Z,43.11
2019-05-19T01:38:18.375Z,43.13
2019-05-19T01:40:47.988Z,43.19
2019-05-19T01:43:17.557Z,43.20
2019-05-19T01:45:47.113Z,43.19
2019-05-19T01:48:16.836Z,43.22
2019-05-19T01:50:46.731Z,43.17
2019-05-19T01:53:16.345Z,43.21
2019-05-19T01:55:46.527Z,43.18
2019-05-19T01:58:16.123Z,43.17
2019-05-19T02:00:45.834Z,43.17
2019-05-19T02:03:15.771Z,43.16
2019-05-19T02:05:46.083Z,43.16
2019-05-19T02:08:16.414Z,43.19
2019-05-19T02:10:45.990Z,43.17
2019-05-19T02:13:15.532Z,43.22
2019-05-19T02:15:45.101Z,43.28
2019-05-19T02:18:14.884Z,43.27
2019-05-19T02:20:44.777Z,43.20
2019-05-19T02:23:14.761Z,43.22
2019-05-19T02:25:44.316Z,43.20
2019-05-19T02:28:13.896Z,43.27
2019-05-19T02:30:43.430Z,43.29
2019-05-19T02:33:13.010Z,43.22
2019-05-19T02:35:42.626Z,43.22
2019-05-19T02:38:12.191Z,43.20
2019-05-19T02:40:41.826Z,43.18
2019-05-19T02:43:11.405Z,43.17
2019-05-19T02:45:41.081Z,43.17
2019-05-19T02:48:11.014Z,43.15
2019-05-19T02:50:51.693Z,43.17
2019-05-19T02:53:12.113Z,43.18
2019-05-19T02:55:41.848Z,43.15
2019-05-19T02:58:11.934Z,43.13
2019-05-19T03:00:42.695Z,43.15
2019-05-19T03:03:12.270Z,43.20
2019-05-19T03:05:41.836Z,43.18
2019-05-19T03:08:12.438Z,43.21
2019-05-19T03:10:42.341Z,43.21
2019-05-19T03:13:11.961Z,43.17
2019-05-19T03:15:41.841Z,43.18
2019-05-19T03:18:11.445Z,43.16
2019-05-19T03:20:40.985Z,43.26
2019-05-19T03:23:10.618Z,43.19
2019-05-19T03:25:43.874Z,43.19
2019-05-19T03:28:11.416Z,43.20
2019-05-19T03:31:03.143Z,43.21
2019-05-19T03:33:33.861Z,43.20
2019-05-19T03:36:03.437Z,43.28
2019-05-19T03:38:33.343Z,43.26
2019-05-19T03:41:02.882Z,43.25
2019-05-19T03:43:51.160Z,43.24
2019-05-19T03:46:20.707Z,43.25
2019-05-19T03:48:50.328Z,43.32
2019-05-19T03:51:30.836Z,43.31
2019-05-19T03:53:51.122Z,43.36
2019-05-19T03:56:21.252Z,43.33
2019-05-19T03:58:50.814Z,43.34
2019-05-19T04:01:20.386Z,43.36
2019-05-19T04:03:50.080Z,43.38
2019-05-19T04:06:19.636Z,43.39
2019-05-19T04:08:49.201Z,43.38
2019-05-19T04:11:19.117Z,43.38
2019-05-19T04:13:48.687Z,43.40
2019-05-19T04:16:36.203Z,43.41
2019-05-19T04:19:05.764Z,43.46
2019-05-19T04:21:48.029Z,43.38
2019-05-19T04:24:06.623Z,43.43
2019-05-19T04:26:36.275Z,43.41
2019-05-19T04:29:05.846Z,43.45
2019-05-19T04:31:35.417Z,43.39
2019-05-19T04:34:05.058Z,43.38
2019-05-19T04:36:34.609Z,43.39
2019-05-19T04:39:06.099Z,43.40
2019-05-19T04:41:39.856Z,43.35
2019-05-19T04:44:07.297Z,43.34
2019-05-19T04:46:37.182Z,43.31
2019-05-19T04:49:06.803Z,43.33
2019-05-19T04:51:36.402Z,43.32
2019-05-19T04:54:06.004Z,43.26
2019-05-19T04:56:35.586Z,43.28
2019-05-19T04:59:05.177Z,43.30
2019-05-19T05:01:34.728Z,43.26
2019-05-19T05:04:04.614Z,43.26
2019-05-19T05:06:34.525Z,43.25
2019-05-19T05:09:05.582Z,43.23
2019-05-19T05:11:35.126Z,43.22
2019-05-19T05:14:04.717Z,43.20
2019-05-19T05:16:34.631Z,43.18
2019-05-19T05:19:04.527Z,43.14
2019-05-19T05:21:34.067Z,43.13
2019-05-19T05:24:03.662Z,43.15
2019-05-19T05:26:33.232Z,43.15
2019-05-19T05:29:02.801Z,43.12
2019-05-19T05:31:32.355Z,43.13
2019-05-19T05:34:01.909Z,43.13
2019-05-19T05:36:31.515Z,43.10
2019-05-19T05:39:01.094Z,43.09
2019-05-19T05:41:31.237Z,43.08
2019-05-19T05:44:00.804Z,43.07
2019-05-19T05:46:30.438Z,43.06
2019-05-19T05:48:59.990Z,43.06
2019-05-19T05:51:29.531Z,43.03
2019-05-19T05:53:59.088Z,43.06
2019-05-19T05:56:28.695Z,43.02
2019-05-19T05:58:58.673Z,43.04
2019-05-19T06:01:28.284Z,43.00
2019-05-19T06:03:57.827Z,42.97
2019-05-19T06:06:27.573Z,42.98
2019-05-19T06:08:57.167Z,43.00
2019-05-19T06:11:26.732Z,42.96
2019-05-19T06:13:56.303Z,42.97
2019-05-19T06:16:25.838Z,42.94
2019-05-19T06:18:56.864Z,42.96
2019-05-19T06:21:26.533Z,42.90
2019-05-19T06:23:56.079Z,42.90
2019-05-19T06:26:25.697Z,42.89
2019-05-19T06:28:55.229Z,42.88
2019-05-19T06:31:24.792Z,42.84
2019-05-19T06:33:54.501Z,42.86
2019-05-19T06:36:23.988Z,42.83
2019-05-19T06:38:53.761Z,42.84
2019-05-19T06:41:23.255Z,42.83
2019-05-19T06:43:53.497Z,42.85
2019-05-19T06:46:23.076Z,42.84
2019-05-19T06:48:52.621Z,42.84
2019-05-19T06:51:22.159Z,42.82
2019-05-19T06:53:52.285Z,42.82
2019-05-19T06:56:21.847Z,42.82
2019-05-19T06:58:51.460Z,42.81
2019-05-19T07:01:21.009Z,42.82
2019-05-19T07:03:50.567Z,42.79
2019-05-19T07:06:20.413Z,42.75
2019-05-19T07:08:50.029Z,42.73
2019-05-19T07:11:19.638Z,42.75
2019-05-19T07:13:49.173Z,42.73
2019-05-19T07:16:18.789Z,42.86
2019-05-19T07:18:48.331Z,42.94
2019-05-19T07:21:17.955Z,42.96
2019-05-19T07:23:47.540Z,43.06
2019-05-19T07:26:17.166Z,43.06
2019-05-19T07:28:46.842Z,43.08
2019-05-19T07:31:16.422Z,43.09
2019-05-19T07:33:45.975Z,43.12
2019-05-19T07:36:15.815Z,43.15
2019-05-19T07:38:45.393Z,43.16
2019-05-19T07:41:15.235Z,43.21
2019-05-19T07:43:46.425Z,43.27
2019-05-19T07:46:16.320Z,43.31
2019-05-19T07:48:45.977Z,43.32
2019-05-19T07:51:15.542Z,43.37
2019-05-19T07:53:45.094Z,43.38
2019-05-19T07:56:14.680Z,43.42
2019-05-19T07:58:45.079Z,43.38
2019-05-19T08:01:14.651Z,43.39
2019-05-19T08:03:44.212Z,43.36
2019-05-19T08:06:14.030Z,43.38
2019-05-19T08:08:43.623Z,43.42
2019-05-19T08:11:13.566Z,43.45
2019-05-19T08:13:43.173Z,43.52
2019-05-19T08:16:13.177Z,43.54
2019-05-19T08:18:42.750Z,43.54
2019-05-19T08:21:12.458Z,43.56
2019-05-19T08:23:42.010Z,43.52
2019-05-19T08:26:11.622Z,43.58
2019-05-19T08:28:41.188Z,43.57
2019-05-19T08:31:10.765Z,43.60
2019-05-19T08:33:40.384Z,43.64
2019-05-19T08:36:09.955Z,43.68
2019-05-19T08:38:39.539Z,43.70
2019-05-19T08:41:09.106Z,43.80
2019-05-19T08:43:38.663Z,43.83
2019-05-19T08:46:08.246Z,43.83
2019-05-19T08:48:37.898Z,43.82
2019-05-19T08:51:07.512Z,43.81
2019-05-19T08:53:37.127Z,43.81
2019-05-19T08:56:06.687Z,43.80
2019-05-19T08:58:36.266Z,43.83
2019-05-19T09:01:05.934Z,43.83
2019-05-19T09:03:35.506Z,43.87
2019-05-19T09:06:05.147Z,43.88
2019-05-19T09:08:35.767Z,43.93
2019-05-19T09:11:05.358Z,43.94
2019-05-19T09:13:34.886Z,43.93
2019-05-19T09:16:04.559Z,44.03
2019-05-19T09:18:34.129Z,44.05
2019-05-19T09:21:03.693Z,44.13
2019-05-19T09:23:33.354Z,44.13
2019-05-19T09:26:03.190Z,44.18
2019-05-19T09:28:32.798Z,44.25
2019-05-19T09:31:02.467Z,44.27
2019-05-19T09:33:32.002Z,44.25
2019-05-19T09:36:01.643Z,44.29
2019-05-19T09:38:31.339Z,44.33
2019-05-19T09:41:01.227Z,44.34
2019-05-19T09:43:30.900Z,44.34
2019-05-19T09:46:00.473Z,44.38
2019-05-19T09:48:30.040Z,44.36
2019-05-19T09:50:59.634Z,44.39
2019-05-19T09:53:29.234Z,44.43
2019-05-19T09:55:58.845Z,44.44
2019-05-19T09:58:28.452Z,44.40
2019-05-19T10:00:58.078Z,44.46
2019-05-19T10:03:27.671Z,44.58
2019-05-19T10:05:57.580Z,44.78
2019-05-19T10:08:32.113Z,44.70
2019-05-19T10:11:53.915Z,44.77
2019-05-19T10:14:23.562Z,44.76
2019-05-19T10:16:53.539Z,44.67
2019-05-19T10:19:23.435Z,44.67
2019-05-19T10:21:53.037Z,44.74
2019-05-19T10:24:23.088Z,44.72
2019-05-19T10:26:52.665Z,44.75
2019-05-19T10:29:22.690Z,44.75
2019-05-19T10:31:54.368Z,44.78
2019-05-19T10:34:23.502Z,44.80
2019-05-19T10:36:53.508Z,44.79
2019-05-19T10:39:23.072Z,44.83
2019-05-19T10:41:52.650Z,44.91
2019-05-19T10:44:22.244Z,45.02
2019-05-19T10:46:51.823Z,44.98
2019-05-19T10:49:21.439Z,44.97
2019-05-19T10:51:51.027Z,44.98
2019-05-19T10:54:20.634Z,44.91
2019-05-19T10:56:50.639Z,44.96
2019-05-19T10:59:20.417Z,44.94
2019-05-19T11:01:50.110Z,44.98
2019-05-19T11:04:20.096Z,44.98
2019-05-19T11:06:49.791Z,45.12
2019-05-19T11:09:19.295Z,45.07
2019-05-19T11:11:48.880Z,45.07
2019-05-19T11:14:18.461Z,45.04
2019-05-19T11:16:48.846Z,45.10
2019-05-19T11:19:18.501Z,45.22
2019-05-19T11:21:48.002Z,45.25
2019-05-19T11:24:17.594Z,45.23
2019-05-19T11:26:47.530Z,45.16
2019-05-19T11:29:17.819Z,45.25
2019-05-19T11:31:47.534Z,45.27
2019-05-19T11:34:17.190Z,45.30
2019-05-19T11:36:46.753Z,45.37
2019-05-19T11:39:16.353Z,45.35
2019-05-19T11:42:03.690Z,45.44
2019-05-19T11:44:33.829Z,45.40
2019-05-19T11:47:03.392Z,45.40
2019-05-19T11:49:32.993Z,45.40
2019-05-19T11:52:02.637Z,45.37
2019-05-19T11:54:32.229Z,45.41
2019-05-19T11:57:02.160Z,45.42
2019-05-19T11:59:32.122Z,45.42
2019-05-19T12:02:01.791Z,45.41
2019-05-19T12:04:31.667Z,45.44
2019-05-19T12:07:02.016Z,45.43
2019-05-19T12:09:31.610Z,45.44
2019-05-19T12:12:01.228Z,45.45
2019-05-19T12:14:31.137Z,45.40
2019-05-19T12:17:00.878Z,45.40
2019-05-19T12:19:30.532Z,45.45
2019-05-19T12:22:00.137Z,45.43
2019-05-19T12:24:29.801Z,45.40
2019-05-19T12:26:59.403Z,45.38
2019-05-19T12:29:29.355Z,45.45
2019-05-19T12:31:58.927Z,45.43
2019-05-19T12:34:28.548Z,45.47
2019-05-19T12:36:58.128Z,45.59
2019-05-19T12:39:27.829Z,45.63
2019-05-19T12:41:57.630Z,45.69
2019-05-19T12:44:27.293Z,45.76
2019-05-19T12:46:56.867Z,45.81
2019-05-19T12:49:26.448Z,45.82
2019-05-19T12:51:56.002Z,45.79
2019-05-19T12:54:25.698Z,45.81
2019-05-19T12:56:55.387Z,45.83
2019-05-19T12:59:24.988Z,45.79
2019-05-19T13:01:54.576Z,45.80
2019-05-19T13:04:24.450Z,45.88
2019-05-19T13:06:54.071Z,45.83
2019-05-19T13:09:25.525Z,45.81
2019-05-19T13:11:55.103Z,45.82
2019-05-19T13:14:24.857Z,45.82
2019-05-19T13:16:54.617Z,45.87
2019-05-19T13:19:24.299Z,45.79
2019-05-19T13:21:54.018Z,45.80
2019-05-19T13:24:23.670Z,45.73
2019-05-19T13:26:56.525Z,46.02
2019-05-19T13:29:24.901Z,45.99
2019-05-19T13:31:54.511Z,46.12
2019-05-19T13:34:24.105Z,46.07
2019-05-19T13:36:53.697Z,45.96
2019-05-19T13:39:23.260Z,45.87
2019-05-19T13:41:53.187Z,45.91
2019-05-19T13:44:22.787Z,45.87
2019-05-19T13:46:52.673Z,45.85
2019-05-19T13:49:22.293Z,45.75
2019-05-19T13:51:51.851Z,45.72
2019-05-19T13:54:21.431Z,45.65
2019-05-19T13:56:50.986Z,45.63
2019-05-19T13:59:20.539Z,45.59
2019-05-19T14:01:50.125Z,45.55
2019-05-19T14:04:19.705Z,45.58
2019-05-19T14:06:49.278Z,45.52
2019-05-19T14:09:21.471Z,45.50
2019-05-19T14:11:51.432Z,45.46
2019-05-19T14:14:21.014Z,45.42
2019-05-19T14:16:50.642Z,45.41
2019-05-19T14:19:20.187Z,45.42
2019-05-19T14:21:49.832Z,45.40
2019-05-19T14:24:19.924Z,45.43
2019-05-19T14:26:49.782Z,45.43
2019-05-19T14:29:19.345Z,45.44
2019-05-19T14:31:48.899Z,45.42
2019-05-19T14:34:18.746Z,45.41
2019-05-19T14:36:48.254Z,45.44
2019-05-19T14:39:17.837Z,45.45
2019-05-19T14:41:51.795Z,45.48
2019-05-19T14:44:21.361Z,45.49
2019-05-19T14:46:50.929Z,45.49
2019-05-19T14:49:20.508Z,45.40
2019-05-19T14:51:50.075Z,45.42
2019-05-19T14:54:19.662Z,45.43
2019-05-19T14:56:49.344Z,45.40
2019-05-19T14:59:19.447Z,45.42
2019-05-19T15:01:49.119Z,45.57
2019-05-19T15:04:18.691Z,45.80
2019-05-19T15:06:48.264Z,45.71
2019-05-19T15:09:17.858Z,45.86
2019-05-19T15:11:47.403Z,45.96
2019-05-19T15:14:17.422Z,45.67
2019-05-19T15:16:47.048Z,45.75
2019-05-19T15:19:34.669Z,45.71
2019-05-19T15:22:22.751Z,45.66
2019-05-19T15:24:52.340Z,45.65
2019-05-19T15:27:21.910Z,45.70
2019-05-19T15:29:51.471Z,45.80
2019-05-19T15:32:21.033Z,45.76
2019-05-19T15:34:50.587Z,45.68
2019-05-19T15:37:20.189Z,45.64
2019-05-19T15:39:49.753Z,45.63
2019-05-19T15:42:19.321Z,45.56
2019-05-19T15:44:48.894Z,45.61
2019-05-19T15:47:18.812Z,45.64
2019-05-19T15:49:48.443Z,45.53
2019-05-19T15:52:18.018Z,45.47
2019-05-19T15:54:47.637Z,45.48
2019-05-19T15:57:17.223Z,45.44
2019-05-19T15:59:46.775Z,45.48
2019-05-19T16:02:16.345Z,45.45
2019-05-19T16:04:45.887Z,45.42
2019-05-19T16:07:15.571Z,45.41
2019-05-19T16:09:45.160Z,45.40
2019-05-19T16:12:14.824Z,45.33
2019-05-19T16:14:44.372Z,45.31
2019-05-19T16:17:14.040Z,45.35
2019-05-19T16:19:43.590Z,45.39
2019-05-19T16:22:13.130Z,45.35
2019-05-19T16:24:42.746Z,45.35
2019-05-19T16:27:12.929Z,45.48
2019-05-19T16:29:42.810Z,45.58
2019-05-19T16:32:12.363Z,45.58
2019-05-19T16:34:41.998Z,45.58
2019-05-19T16:37:11.562Z,45.54
2019-05-19T16:39:41.137Z,45.51
2019-05-19T16:42:10.701Z,45.50
2019-05-19T16:44:40.293Z,45.45
2019-05-19T16:47:09.938Z,45.46
2019-05-19T16:49:39.522Z,45.44
2019-05-19T16:52:09.684Z,45.44
2019-05-19T16:54:42.820Z,45.43
2019-05-19T16:57:12.509Z,45.46
2019-05-19T16:59:42.276Z,45.48
2019-05-19T17:02:11.826Z,45.50
2019-05-19T17:04:41.385Z,45.47
2019-05-19T17:07:10.971Z,45.48
2019-05-19T17:09:40.869Z,45.50
2019-05-19T17:12:10.965Z,45.50
2019-05-19T17:14:40.527Z,45.53
2019-05-19T17:17:10.095Z,45.56
2019-05-19T17:19:39.815Z,45.57
2019-05-19T17:22:09.763Z,45.54
2019-05-19T17:24:39.450Z,45.52
2019-05-19T17:27:09.193Z,45.53
2019-05-19T17:29:38.775Z,45.52
2019-05-19T17:32:08.423Z,45.53
2019-05-19T17:34:38.202Z,45.58
2019-05-19T17:37:25.589Z,45.54
2019-05-19T17:39:55.187Z,45.60
2019-05-19T17:42:24.780Z,45.64
2019-05-19T17:44:54.335Z,45.64
2019-05-19T17:47:23.921Z,45.60
2019-05-19T17:49:53.487Z,45.64
2019-05-19T17:52:23.058Z,45.70
2019-05-19T17:54:52.736Z,45.69
2019-05-19T17:57:22.297Z,45.66
2019-05-19T17:59:51.903Z,45.70
2019-05-19T18:02:21.484Z,45.74
2019-05-19T18:04:51.057Z,45.76
2019-05-19T18:07:20.929Z,45.78
2019-05-19T18:09:50.593Z,45.73
2019-05-19T18:12:20.160Z,45.73
2019-05-19T18:14:50.678Z,45.79
2019-05-19T18:17:20.229Z,45.76
2019-05-19T18:19:49.824Z,45.86
2019-05-19T18:22:19.398Z,45.86
2019-05-19T18:24:49.224Z,45.92
2019-05-19T18:27:18.789Z,45.94
2019-05-19T18:29:48.483Z,45.97
2019-05-19T18:32:18.235Z,45.94
2019-05-19T18:34:47.792Z,45.98
2019-05-19T18:37:17.466Z,45.98
2019-05-19T18:39:47.552Z,45.94
2019-05-19T18:42:17.169Z,45.88
2019-05-19T18:44:46.806Z,45.92
2019-05-19T18:47:16.402Z,45.89
2019-05-19T18:49:46.003Z,45.94
2019-05-19T18:52:15.755Z,45.92
2019-05-19T18:54:45.442Z,45.98
2019-05-19T18:57:15.091Z,45.94
2019-05-19T18:59:47.289Z,45.90
2019-05-19T19:02:33.757Z,45.91
2019-05-19T19:05:03.412Z,45.87
2019-05-19T19:07:53.970Z,45.92
2019-05-19T19:10:23.739Z,45.92
2019-05-19T19:12:53.393Z,45.98
2019-05-19T19:15:23.548Z,46.01
2019-05-19T19:17:53.267Z,45.99
2019-05-19T19:20:23.060Z,45.98
2019-05-19T19:22:52.873Z,46.03
2019-05-19T19:25:22.549Z,46.07
2019-05-19T19:27:52.138Z,46.04
2019-05-19T19:30:21.732Z,46.07
2019-05-19T19:32:51.934Z,46.08
2019-05-19T19:35:21.507Z,46.11
2019-05-19T19:37:51.170Z,46.08
2019-05-19T19:40:28.990Z,46.08
2019-05-19T19:43:16.923Z,46.04
2019-05-19T19:45:46.470Z,46.06
2019-05-19T19:48:16.390Z,46.12
2019-05-19T19:50:46.087Z,46.25
2019-05-19T19:53:15.688Z,46.28
2019-05-19T19:55:45.368Z,46.33
2019-05-19T19:58:14.964Z,46.40
2019-05-19T20:00:45.123Z,46.56
2019-05-19T20:03:14.810Z,46.58
2019-05-19T20:05:44.387Z,46.63
2019-05-19T20:08:13.980Z,46.61
2019-05-19T20:10:43.556Z,46.69
2019-05-19T20:13:13.212Z,46.66
2019-05-19T20:15:42.769Z,46.74
2019-05-19T20:18:12.904Z,46.76
2019-05-19T20:20:42.478Z,46.79
2019-05-19T20:23:12.051Z,46.78
2019-05-19T20:25:41.663Z,46.88
2019-05-19T20:28:11.288Z,47.11
2019-05-19T20:30:41.260Z,47.14
2019-05-19T20:33:10.925Z,47.25
2019-05-19T20:35:40.491Z,47.29
2019-05-19T20:38:10.099Z,47.29
2019-05-19T20:40:39.723Z,47.21
2019-05-19T20:43:09.335Z,47.30
2019-05-19T20:45:38.892Z,47.37
2019-05-19T20:48:08.729Z,47.42
2019-05-19T20:50:38.542Z,47.41
2019-05-19T20:53:08.108Z,47.48
2019-05-19T20:55:37.675Z,47.35
2019-05-19T20:58:07.413Z,47.28
2019-05-19T21:00:49.406Z,47.30
2019-05-19T21:03:08.334Z,47.33
2019-05-19T21:05:38.407Z,47.29
2019-05-19T21:08:08.101Z,47.27
2019-05-19T21:10:37.707Z,47.41
2019-05-19T21:13:07.261Z,47.55
2019-05-19T21:15:36.809Z,47.38
2019-05-19T21:18:06.456Z,47.31
2019-05-19T21:20:36.009Z,47.24
2019-05-19T21:23:05.600Z,47.18
2019-05-19T21:25:35.640Z,47.10
2019-05-19T21:28:05.303Z,47.03
2019-05-19T21:30:34.862Z,46.95
2019-05-19T21:33:05.492Z,46.92
2019-05-19T21:35:35.121Z,46.87
2019-05-19T21:38:04.710Z,46.82
2019-05-19T21:40:34.314Z,46.77
2019-05-19T21:43:04.219Z,46.74
2019-05-19T21:45:33.761Z,46.73
2019-05-19T21:48:03.359Z,46.73
2019-05-19T21:50:33.318Z,46.68
2019-05-19T21:53:05.999Z,46.58
2019-05-19T21:55:34.250Z,46.63
2019-05-19T21:58:03.816Z,46.64
2019-05-19T22:00:33.758Z,46.65
2019-05-19T22:03:04.376Z,46.58
2019-05-19T22:05:33.936Z,46.59
2019-05-19T22:08:06.954Z,46.55
2019-05-19T22:10:36.514Z,46.55
2019-05-19T22:13:06.063Z,46.54
2019-05-19T22:15:35.698Z,46.54
2019-05-19T22:18:05.396Z,46.56
2019-05-19T22:20:35.084Z,46.51
2019-05-19T22:23:04.998Z,46.48
2019-05-19T22:25:34.591Z,46.46
2019-05-19T22:28:04.525Z,46.48
2019-05-19T22:30:34.090Z,46.51
2019-05-19T22:33:03.628Z,46.46
2019-05-19T22:35:33.166Z,46.47
2019-05-19T22:38:02.761Z,46.45
2019-05-19T22:40:32.352Z,46.42
2019-05-19T22:43:01.972Z,46.44
2019-05-19T22:45:31.549Z,46.46
2019-05-19T22:48:01.097Z,46.39
2019-05-19T22:50:30.695Z,46.36
2019-05-19T22:53:00.252Z,46.38
2019-05-19T22:55:29.820Z,46.44
2019-05-19T22:57:59.514Z,46.41
2019-05-19T23:00:29.960Z,46.45
2019-05-19T23:02:59.498Z,46.43
2019-05-19T23:05:29.649Z,46.43
2019-05-19T23:07:59.204Z,46.42
2019-05-19T23:10:28.760Z,46.47
2019-05-19T23:12:58.317Z,46.44
2019-05-19T23:15:27.872Z,46.39
2019-05-19T23:17:58.039Z,46.41
2019-05-19T23:20:27.590Z,46.43
2019-05-19T23:22:57.129Z,46.43
2019-05-19T23:25:26.675Z,46.45
2019-05-19T23:27:56.221Z,46.43
2019-05-19T23:30:25.811Z,46.41
2019-05-19T23:32:55.344Z,46.42
2019-05-19T23:35:25.159Z,46.40
2019-05-19T23:37:54.788Z,46.44
2019-05-19T23:40:24.388Z,46.44
2019-05-19T23:42:54.312Z,46.38
2019-05-19T23:45:23.851Z,46.40
2019-05-19T23:47:53.402Z,46.43
2019-05-19T23:50:22.950Z,46.52
2019-05-19T23:52:52.529Z,46.54
2019-05-19T23:55:22.446Z,46.44
2019-05-19T23:57:51.990Z,46.44
